PWSweather.com
Personal Weather Stations
Station Observations
ISYDDANM23
Felsted, AabenraaDK 6200

FelstedAabenraaDK 6200

Lat: 54.977066, Lon: 9.507192

Elevation: 135

Station Type: Davis Vantage Pro 2 Plus 24H

http://www.valkaer.dk

High Low Average
Temperature 66.0°F18.9°C 52.4°F11.3°C 59.0°F15.0°C
Dew Point 52.1°F11.2°C 47.8°F8.8°C 50.0°F10.0°C
Winds 17.3 mph 27.8 kmh Calm Calm 7.0 mph SW11.3 kmh SW
Wind Gusts 24.2 mph38.9 kmh -- 10.0 mph16.1 kmh
Humidity 90% 55% 73%
Pressure 30.20 in1022.7 mb 30.00 in1015.9 mb -
Precipitation 0.03 in0.8 mm - -
Hour Temp Dew Point Humidity Winds Wind Gusts Pressure Precip Precip Rate Daily Precip Total
12:00 AM 53.7°F12.1°C 49.9°F9.9°C 87% 8.1 mph SSW13.0 kmh SSW 10.4 mph16.7 kmh 30.01 in1016.3 mb - 0.00 in0.0 mm 0.00 in0.0 mm
12:10 AM 53.6°F12.0°C 49.8°F9.9°C 87% 9.2 mph SSW14.8 kmh SSW 13.8 mph22.2 kmh 30.01 in1016.3 mb - 0.00 in0.0 mm 0.00 in0.0 mm
12:15 AM 53.7°F12.1°C 49.6°F9.8°C 86% 9.2 mph SSW14.8 kmh SSW 11.5 mph18.5 kmh 30.01 in1016.3 mb - 0.00 in0.0 mm 0.00 in0.0 mm
12:20 AM 53.8°F12.1°C 49.7°F9.8°C 86% 9.2 mph SSW14.8 kmh SSW 11.5 mph18.5 kmh 30.01 in1016.3 mb - 0.00 in0.0 mm 0.00 in0.0 mm
12:25 AM 53.7°F12.1°C 49.6°F9.8°C 86% 6.9 mph SSW11.1 kmh SSW 9.2 mph14.8 kmh 30.01 in1016.3 mb - 0.00 in0.0 mm 0.00 in0.0 mm
12:30 AM 53.6°F12.0°C 49.5°F9.7°C 86% 8.1 mph SSW13.0 kmh SSW 12.7 mph20.4 kmh 30.01 in1016.3 mb - 0.00 in0.0 mm 0.00 in0.0 mm
12:35 AM 53.7°F12.1°C 49.9°F9.9°C 87% 9.2 mph S14.8 kmh S 11.5 mph18.5 kmh 30.00 in1015.9 mb - 0.00 in0.0 mm 0.00 in0.0 mm
12:40 AM 53.7°F12.1°C 49.9°F9.9°C 87% 9.2 mph SSW14.8 kmh SSW 11.5 mph18.5 kmh 30.01 in1016.3 mb - 0.00 in0.0 mm 0.00 in0.0 mm
12:45 AM 53.7°F12.1°C 49.6°F9.8°C 86% 6.9 mph SSW11.1 kmh SSW 9.2 mph14.8 kmh 30.01 in1016.3 mb - 0.00 in0.0 mm 0.00 in0.0 mm
12:50 AM 53.8°F12.1°C 49.7°F9.8°C 86% 9.2 mph SSW14.8 kmh SSW 11.5 mph18.5 kmh 30.00 in1015.9 mb - 0.00 in0.0 mm 0.00 in0.0 mm
12:55 AM 54.1°F12.3°C 50.0°F10.0°C 86% 8.1 mph SSW13.0 kmh SSW 11.5 mph18.5 kmh 30.01 in1016.3 mb - 0.00 in0.0 mm 0.00 in0.0 mm
01:00 AM 54.3°F12.4°C 50.2°F10.1°C 86% 8.1 mph S13.0 kmh S 10.4 mph16.7 kmh 30.01 in1016.3 mb - 0.00 in0.0 mm 0.00 in0.0 mm
01:10 AM 54.5°F12.5°C 50.4°F10.2°C 86% 9.2 mph SSW14.8 kmh SSW 12.7 mph20.4 kmh 30.01 in1016.3 mb - 0.01 in0.3 mm 0.01 in0.3 mm
01:15 AM 54.4°F12.4°C 50.3°F10.2°C 86% 8.1 mph SW13.0 kmh SW 11.5 mph18.5 kmh 30.02 in1016.6 mb - 0.01 in0.3 mm 0.01 in0.3 mm
01:20 AM 54.2°F12.3°C 50.4°F10.2°C 87% 15.0 mph SW24.1 kmh SW 21.9 mph35.2 kmh 30.02 in1016.6 mb - 0.02 in0.5 mm 0.02 in0.5 mm
01:25 AM 54.0°F12.2°C 49.9°F9.9°C 86% 17.3 mph SW27.8 kmh SW 20.7 mph33.3 kmh 30.02 in1016.6 mb - 0.02 in0.5 mm 0.02 in0.5 mm
01:30 AM 53.6°F12.0°C 49.2°F9.6°C 85% 16.1 mph SW25.9 kmh SW 19.6 mph31.5 kmh 30.02 in1016.6 mb - 0.02 in0.5 mm 0.02 in0.5 mm
01:35 AM 53.4°F11.9°C 49.3°F9.6°C 86% 13.8 mph SW22.2 kmh SW 17.3 mph27.8 kmh 30.02 in1016.6 mb - 0.02 in0.5 mm 0.02 in0.5 mm
01:40 AM 53.3°F11.8°C 49.5°F9.7°C 87% 10.4 mph SW16.7 kmh SW 13.8 mph22.2 kmh 30.03 in1016.9 mb - 0.02 in0.5 mm 0.02 in0.5 mm
01:45 AM 53.1°F11.7°C 49.3°F9.6°C 87% 10.4 mph SW16.7 kmh SW 17.3 mph27.8 kmh 30.02 in1016.6 mb - 0.02 in0.5 mm 0.02 in0.5 mm
01:50 AM 52.7°F11.5°C 49.0°F9.4°C 87% 9.2 mph SW14.8 kmh SW 13.8 mph22.2 kmh 30.03 in1016.9 mb - 0.02 in0.5 mm 0.02 in0.5 mm
01:55 AM 52.5°F11.4°C 49.0°F9.4°C 88% 12.7 mph SW20.4 kmh SW 17.3 mph27.8 kmh 30.03 in1016.9 mb - 0.02 in0.5 mm 0.02 in0.5 mm
02:00 AM 52.4°F11.3°C 49.0°F9.4°C 88% 13.8 mph SW22.2 kmh SW 18.4 mph29.6 kmh 30.03 in1016.9 mb - 0.02 in0.5 mm 0.02 in0.5 mm
02:10 AM 52.4°F11.3°C 48.9°F9.4°C 88% 9.2 mph SW14.8 kmh SW 11.5 mph18.5 kmh 30.03 in1016.9 mb - 0.02 in0.5 mm 0.02 in0.5 mm
02:15 AM 52.4°F11.3°C 49.3°F9.6°C 89% 6.9 mph SW11.1 kmh SW 12.7 mph20.4 kmh 30.04 in1017.3 mb - 0.02 in0.5 mm 0.02 in0.5 mm
02:20 AM 52.7°F11.5°C 49.6°F9.8°C 89% 8.1 mph SW13.0 kmh SW 11.5 mph18.5 kmh 30.04 in1017.3 mb - 0.01 in0.3 mm 0.02 in0.5 mm
02:25 AM 53.0°F11.7°C 49.8°F9.9°C 89% 8.1 mph SW13.0 kmh SW 10.4 mph16.7 kmh 30.04 in1017.3 mb - 0.00 in0.0 mm 0.02 in0.5 mm
02:30 AM 53.2°F11.8°C 50.0°F10.0°C 89% 8.1 mph SSW13.0 kmh SSW 11.5 mph18.5 kmh 30.04 in1017.3 mb - 0.00 in0.0 mm 0.02 in0.5 mm
02:35 AM 53.3°F11.8°C 50.1°F10.1°C 89% 6.9 mph SW11.1 kmh SW 10.4 mph16.7 kmh 30.04 in1017.3 mb - 0.00 in0.0 mm 0.02 in0.5 mm
02:40 AM 53.4°F11.9°C 50.2°F10.1°C 89% 8.1 mph SW13.0 kmh SW 11.5 mph18.5 kmh 30.04 in1017.3 mb - 0.00 in0.0 mm 0.02 in0.5 mm
02:45 AM 53.5°F11.9°C 50.3°F10.2°C 89% 6.9 mph SW11.1 kmh SW 11.5 mph18.5 kmh 30.04 in1017.3 mb - 0.00 in0.0 mm 0.02 in0.5 mm
02:50 AM 53.5°F11.9°C 50.4°F10.2°C 89% 6.9 mph SW11.1 kmh SW 10.4 mph16.7 kmh 30.04 in1017.3 mb - 0.00 in0.0 mm 0.02 in0.5 mm
02:55 AM 53.5°F11.9°C 50.3°F10.2°C 89% 5.8 mph SW9.3 kmh SW 8.1 mph13.0 kmh 30.05 in1017.6 mb - 0.00 in0.0 mm 0.02 in0.5 mm
03:00 AM 53.4°F11.9°C 50.3°F10.2°C 89% 9.2 mph SW14.8 kmh SW 16.1 mph25.9 kmh 30.05 in1017.6 mb - 0.00 in0.0 mm 0.02 in0.5 mm
03:10 AM 53.6°F12.0°C 50.4°F10.2°C 89% 5.8 mph SW9.3 kmh SW 9.2 mph14.8 kmh 30.05 in1017.6 mb - 0.00 in0.0 mm 0.02 in0.5 mm
03:15 AM 53.7°F12.1°C 50.8°F10.4°C 90% 8.1 mph SW13.0 kmh SW 12.7 mph20.4 kmh 30.04 in1017.3 mb - 0.00 in0.0 mm 0.02 in0.5 mm
03:20 AM 53.8°F12.1°C 51.0°F10.6°C 90% 9.2 mph SW14.8 kmh SW 12.7 mph20.4 kmh 30.04 in1017.3 mb - 0.00 in0.0 mm 0.02 in0.5 mm
03:25 AM 53.9°F12.2°C 50.8°F10.4°C 89% 9.2 mph SW14.8 kmh SW 10.4 mph16.7 kmh 30.05 in1017.6 mb - 0.00 in0.0 mm 0.02 in0.5 mm
03:30 AM 54.0°F12.2°C 50.8°F10.4°C 89% 8.1 mph SW13.0 kmh SW 12.7 mph20.4 kmh 30.05 in1017.6 mb - 0.00 in0.0 mm 0.02 in0.5 mm
03:35 AM 54.1°F12.3°C 50.9°F10.5°C 89% 8.1 mph SW13.0 kmh SW 16.1 mph25.9 kmh 30.05 in1017.6 mb - 0.00 in0.0 mm 0.02 in0.5 mm
03:40 AM 54.1°F12.3°C 51.0°F10.6°C 89% 8.1 mph SW13.0 kmh SW 12.7 mph20.4 kmh 30.05 in1017.6 mb - 0.00 in0.0 mm 0.02 in0.5 mm
03:45 AM 54.2°F12.3°C 51.0°F10.6°C 89% 6.9 mph SW11.1 kmh SW 10.4 mph16.7 kmh 30.05 in1017.6 mb - 0.00 in0.0 mm 0.02 in0.5 mm
03:50 AM 54.2°F12.3°C 51.1°F10.6°C 89% 8.1 mph SW13.0 kmh SW 12.7 mph20.4 kmh 30.05 in1017.6 mb - 0.00 in0.0 mm 0.02 in0.5 mm
03:55 AM 54.2°F12.3°C 50.7°F10.4°C 88% 8.1 mph SW13.0 kmh SW 12.7 mph20.4 kmh 30.05 in1017.6 mb - 0.00 in0.0 mm 0.02 in0.5 mm
04:00 AM 54.0°F12.2°C 50.6°F10.3°C 88% 8.1 mph SW13.0 kmh SW 16.1 mph25.9 kmh 30.05 in1017.6 mb - 0.00 in0.0 mm 0.02 in0.5 mm
04:10 AM 53.7°F12.1°C 50.2°F10.1°C 88% 6.9 mph SW11.1 kmh SW 9.2 mph14.8 kmh 30.05 in1017.6 mb - 0.00 in0.0 mm 0.02 in0.5 mm
04:15 AM 53.6°F12.0°C 50.4°F10.2°C 89% 8.1 mph SW13.0 kmh SW 12.7 mph20.4 kmh 30.05 in1017.6 mb - 0.00 in0.0 mm 0.02 in0.5 mm
04:20 AM 53.6°F12.0°C 50.1°F10.1°C 88% 10.4 mph SW16.7 kmh SW 16.1 mph25.9 kmh 30.05 in1017.6 mb - 0.00 in0.0 mm 0.02 in0.5 mm
04:25 AM 53.7°F12.1°C 50.2°F10.1°C 88% 5.8 mph SW9.3 kmh SW 6.9 mph11.1 kmh 30.05 in1017.6 mb - 0.00 in0.0 mm 0.02 in0.5 mm
04:30 AM 53.6°F12.0°C 49.8°F9.9°C 87% 6.9 mph SW11.1 kmh SW 8.1 mph13.0 kmh 30.06 in1017.9 mb - 0.00 in0.0 mm 0.02 in0.5 mm
04:35 AM 53.5°F11.9°C 49.7°F9.8°C 87% 6.9 mph SW11.1 kmh SW 11.5 mph18.5 kmh 30.06 in1017.9 mb - 0.00 in0.0 mm 0.02 in0.5 mm
04:40 AM 53.4°F11.9°C 49.6°F9.8°C 87% 6.9 mph SW11.1 kmh SW 8.1 mph13.0 kmh 30.06 in1017.9 mb - 0.00 in0.0 mm 0.02 in0.5 mm
04:45 AM 53.4°F11.9°C 49.6°F9.8°C 87% 6.9 mph SW11.1 kmh SW 8.1 mph13.0 kmh 30.06 in1017.9 mb - 0.00 in0.0 mm 0.02 in0.5 mm
04:50 AM 53.5°F11.9°C 49.7°F9.8°C 87% 6.9 mph SW11.1 kmh SW 12.7 mph20.4 kmh 30.06 in1017.9 mb - 0.00 in0.0 mm 0.02 in0.5 mm
04:55 AM 53.6°F12.0°C 49.9°F9.9°C 87% 5.8 mph SW9.3 kmh SW 8.1 mph13.0 kmh 30.06 in1017.9 mb - 0.00 in0.0 mm 0.02 in0.5 mm
05:00 AM 53.8°F12.1°C 50.0°F10.0°C 87% 9.2 mph SW14.8 kmh SW 13.8 mph22.2 kmh 30.07 in1018.3 mb - 0.00 in0.0 mm 0.02 in0.5 mm
05:10 AM 54.0°F12.2°C 50.3°F10.2°C 87% 8.1 mph SW13.0 kmh SW 11.5 mph18.5 kmh 30.07 in1018.3 mb - 0.00 in0.0 mm 0.02 in0.5 mm
05:15 AM 54.1°F12.3°C 50.0°F10.0°C 86% 6.9 mph SW11.1 kmh SW 9.2 mph14.8 kmh 30.07 in1018.3 mb - 0.00 in0.0 mm 0.02 in0.5 mm
05:20 AM 54.1°F12.3°C 50.0°F10.0°C 86% 8.1 mph SW13.0 kmh SW 10.4 mph16.7 kmh 30.08 in1018.6 mb - 0.00 in0.0 mm 0.02 in0.5 mm
05:25 AM 54.2°F12.3°C 50.1°F10.1°C 86% 5.8 mph SW9.3 kmh SW 11.5 mph18.5 kmh 30.08 in1018.6 mb - 0.00 in0.0 mm 0.02 in0.5 mm
05:30 AM 54.6°F12.6°C 50.2°F10.1°C 85% 9.2 mph SW14.8 kmh SW 11.5 mph18.5 kmh 30.08 in1018.6 mb - 0.00 in0.0 mm 0.02 in0.5 mm
05:35 AM 54.9°F12.7°C 50.4°F10.2°C 85% 5.8 mph SW9.3 kmh SW 12.7 mph20.4 kmh 30.08 in1018.6 mb - 0.00 in0.0 mm 0.02 in0.5 mm
05:40 AM 54.9°F12.7°C 50.5°F10.3°C 85% 6.9 mph SW11.1 kmh SW 10.4 mph16.7 kmh 30.09 in1019.0 mb - 0.00 in0.0 mm 0.02 in0.5 mm
05:45 AM 54.7°F12.6°C 50.3°F10.2°C 85% 6.9 mph SW11.1 kmh SW 12.7 mph20.4 kmh 30.09 in1019.0 mb - 0.00 in0.0 mm 0.02 in0.5 mm
05:50 AM 54.7°F12.6°C 50.3°F10.2°C 85% 10.4 mph SW16.7 kmh SW 11.5 mph18.5 kmh 30.09 in1019.0 mb - 0.00 in0.0 mm 0.02 in0.5 mm
05:55 AM 54.9°F12.7°C 50.5°F10.3°C 85% 6.9 mph SW11.1 kmh SW 10.4 mph16.7 kmh 30.09 in1019.0 mb - 0.00 in0.0 mm 0.02 in0.5 mm
06:00 AM 55.2°F12.9°C 50.8°F10.4°C 85% 6.9 mph SW11.1 kmh SW 8.1 mph13.0 kmh 30.09 in1019.0 mb - 0.00 in0.0 mm 0.02 in0.5 mm
06:10 AM 55.5°F13.1°C 50.7°F10.4°C 84% 6.9 mph SW11.1 kmh SW 10.4 mph16.7 kmh 30.10 in1019.3 mb - 0.00 in0.0 mm 0.02 in0.5 mm
06:15 AM 55.7°F13.2°C 50.9°F10.5°C 84% 9.2 mph SW14.8 kmh SW 13.8 mph22.2 kmh 30.10 in1019.3 mb - 0.00 in0.0 mm 0.02 in0.5 mm
06:20 AM 55.8°F13.2°C 50.7°F10.4°C 83% 10.4 mph SW16.7 kmh SW 18.4 mph29.6 kmh 30.10 in1019.3 mb - 0.00 in0.0 mm 0.02 in0.5 mm
06:25 AM 56.1°F13.4°C 50.7°F10.4°C 82% 10.4 mph SW16.7 kmh SW 15.0 mph24.1 kmh 30.10 in1019.3 mb - 0.00 in0.0 mm 0.02 in0.5 mm
06:30 AM 56.3°F13.5°C 50.9°F10.5°C 82% 8.1 mph SW13.0 kmh SW 15.0 mph24.1 kmh 30.11 in1019.6 mb - 0.00 in0.0 mm 0.02 in0.5 mm
06:35 AM 56.5°F13.6°C 50.7°F10.4°C 81% 10.4 mph WSW16.7 kmh WSW 11.5 mph18.5 kmh 30.11 in1019.6 mb - 0.00 in0.0 mm 0.02 in0.5 mm
06:40 AM 56.7°F13.7°C 51.3°F10.7°C 82% 6.9 mph SW11.1 kmh SW 9.2 mph14.8 kmh 30.11 in1019.6 mb - 0.00 in0.0 mm 0.02 in0.5 mm
06:45 AM 56.4°F13.6°C 51.0°F10.6°C 82% 9.2 mph SW14.8 kmh SW 11.5 mph18.5 kmh 30.11 in1019.6 mb - 0.00 in0.0 mm 0.02 in0.5 mm
06:50 AM 56.4°F13.6°C 51.0°F10.6°C 82% 9.2 mph SW14.8 kmh SW 17.3 mph27.8 kmh 30.11 in1019.6 mb - 0.00 in0.0 mm 0.02 in0.5 mm
06:55 AM 56.8°F13.8°C 51.0°F10.6°C 81% 10.4 mph WSW16.7 kmh WSW 12.7 mph20.4 kmh 30.11 in1019.6 mb - 0.00 in0.0 mm 0.02 in0.5 mm
07:00 AM 57.2°F14.0°C 51.1°F10.6°C 80% 10.4 mph WSW16.7 kmh WSW 20.7 mph33.3 kmh 30.12 in1020.0 mb - 0.00 in0.0 mm 0.02 in0.5 mm
07:10 AM 56.8°F13.8°C 50.3°F10.2°C 79% 12.7 mph SW20.4 kmh SW 13.8 mph22.2 kmh 30.12 in1020.0 mb - 0.00 in0.0 mm 0.02 in0.5 mm
07:15 AM 57.1°F13.9°C 50.6°F10.3°C 79% 9.2 mph WSW14.8 kmh WSW 11.5 mph18.5 kmh 30.12 in1020.0 mb - 0.00 in0.0 mm 0.02 in0.5 mm
07:20 AM 57.5°F14.2°C 50.0°F10.0°C 76% 11.5 mph SW18.5 kmh SW 16.1 mph25.9 kmh 30.13 in1020.3 mb - 0.00 in0.0 mm 0.02 in0.5 mm
07:25 AM 57.0°F13.9°C 50.2°F10.1°C 78% 6.9 mph SW11.1 kmh SW 9.2 mph14.8 kmh 30.13 in1020.3 mb - 0.00 in0.0 mm 0.02 in0.5 mm
07:30 AM 57.2°F14.0°C 50.4°F10.2°C 78% 11.5 mph WSW18.5 kmh WSW 17.3 mph27.8 kmh 30.13 in1020.3 mb - 0.00 in0.0 mm 0.02 in0.5 mm
07:35 AM 57.3°F14.1°C 49.1°F9.5°C 74% 15.0 mph SW24.1 kmh SW 21.9 mph35.2 kmh 30.13 in1020.3 mb - 0.00 in0.0 mm 0.02 in0.5 mm
07:40 AM 57.2°F14.0°C 49.0°F9.4°C 74% 9.2 mph WSW14.8 kmh WSW 16.1 mph25.9 kmh 30.13 in1020.3 mb - 0.00 in0.0 mm 0.02 in0.5 mm
07:45 AM 57.6°F14.2°C 49.4°F9.7°C 74% 12.7 mph WSW20.4 kmh WSW 17.3 mph27.8 kmh 30.14 in1020.7 mb - 0.00 in0.0 mm 0.02 in0.5 mm
07:50 AM 57.6°F14.2°C 49.7°F9.8°C 75% 12.7 mph W20.4 kmh W 15.0 mph24.1 kmh 30.14 in1020.7 mb - 0.00 in0.0 mm 0.02 in0.5 mm
07:55 AM 58.0°F14.4°C 50.1°F10.1°C 75% 9.2 mph WSW14.8 kmh WSW 13.8 mph22.2 kmh 30.14 in1020.7 mb - 0.00 in0.0 mm 0.02 in0.5 mm
08:00 AM 58.3°F14.6°C 49.7°F9.8°C 73% 13.8 mph WSW22.2 kmh WSW 16.1 mph25.9 kmh 30.14 in1020.7 mb - 0.00 in0.0 mm 0.02 in0.5 mm
08:10 AM 58.3°F14.6°C 49.3°F9.6°C 72% 13.8 mph SW22.2 kmh SW 13.8 mph22.2 kmh 30.14 in1020.7 mb - 0.00 in0.0 mm 0.02 in0.5 mm
08:15 AM 57.9°F14.4°C 48.9°F9.4°C 72% 12.7 mph WSW20.4 kmh WSW 16.1 mph25.9 kmh 30.15 in1021.0 mb - 0.00 in0.0 mm 0.02 in0.5 mm
08:20 AM 57.8°F14.3°C 48.8°F9.3°C 72% 13.8 mph WSW22.2 kmh WSW 15.0 mph24.1 kmh 30.15 in1021.0 mb - 0.00 in0.0 mm 0.02 in0.5 mm
08:25 AM 58.4°F14.7°C 49.7°F9.8°C 73% 9.2 mph WSW14.8 kmh WSW 16.1 mph25.9 kmh 30.15 in1021.0 mb - 0.00 in0.0 mm 0.02 in0.5 mm
08:30 AM 58.0°F14.4°C 48.3°F9.1°C 70% 11.5 mph SW18.5 kmh SW 15.0 mph24.1 kmh 30.15 in1021.0 mb - 0.00 in0.0 mm 0.02 in0.5 mm
08:35 AM 57.9°F14.4°C 48.6°F9.2°C 71% 12.7 mph SW20.4 kmh SW 17.3 mph27.8 kmh 30.16 in1021.3 mb - 0.00 in0.0 mm 0.02 in0.5 mm
08:40 AM 58.0°F14.4°C 49.0°F9.4°C 72% 11.5 mph WSW18.5 kmh WSW 12.7 mph20.4 kmh 30.16 in1021.3 mb - 0.00 in0.0 mm 0.02 in0.5 mm
08:45 AM 58.4°F14.7°C 49.4°F9.7°C 72% 11.5 mph WSW18.5 kmh WSW 16.1 mph25.9 kmh 30.16 in1021.3 mb - 0.00 in0.0 mm 0.02 in0.5 mm
08:50 AM 59.1°F15.1°C 50.4°F10.2°C 73% 10.4 mph WSW16.7 kmh WSW 13.8 mph22.2 kmh 30.16 in1021.3 mb - 0.00 in0.0 mm 0.02 in0.5 mm
08:55 AM 60.0°F15.6°C 50.6°F10.3°C 71% 11.5 mph W18.5 kmh W 15.0 mph24.1 kmh 30.16 in1021.3 mb - 0.00 in0.0 mm 0.02 in0.5 mm
09:00 AM 59.6°F15.3°C 50.2°F10.1°C 71% 10.4 mph WSW16.7 kmh WSW 11.5 mph18.5 kmh 30.16 in1021.3 mb - 0.00 in0.0 mm 0.02 in0.5 mm
09:10 AM 60.2°F15.7°C 50.7°F10.4°C 71% 11.5 mph WSW18.5 kmh WSW 19.6 mph31.5 kmh 30.16 in1021.3 mb - 0.00 in0.0 mm 0.02 in0.5 mm
09:15 AM 60.1°F15.6°C 49.9°F9.9°C 69% 10.4 mph WSW16.7 kmh WSW 17.3 mph27.8 kmh 30.16 in1021.3 mb - 0.00 in0.0 mm 0.02 in0.5 mm
09:20 AM 59.9°F15.5°C 50.5°F10.3°C 71% 11.5 mph SW18.5 kmh SW 16.1 mph25.9 kmh 30.16 in1021.3 mb - 0.00 in0.0 mm 0.02 in0.5 mm
09:25 AM 60.7°F15.9°C 50.8°F10.4°C 70% 10.4 mph WSW16.7 kmh WSW 11.5 mph18.5 kmh 30.16 in1021.3 mb - 0.00 in0.0 mm 0.02 in0.5 mm
09:30 AM 61.2°F16.2°C 51.3°F10.7°C 70% 10.4 mph WSW16.7 kmh WSW 18.4 mph29.6 kmh 30.17 in1021.7 mb - 0.00 in0.0 mm 0.02 in0.5 mm
09:35 AM 60.9°F16.1°C 49.8°F9.9°C 67% 10.4 mph SW16.7 kmh SW 12.7 mph20.4 kmh 30.17 in1021.7 mb - 0.00 in0.0 mm 0.02 in0.5 mm
09:40 AM 60.2°F15.7°C 48.0°F8.9°C 64% 15.0 mph WSW24.1 kmh WSW 19.6 mph31.5 kmh 30.17 in1021.7 mb - 0.00 in0.0 mm 0.02 in0.5 mm
09:45 AM 59.7°F15.4°C 49.1°F9.5°C 68% 11.5 mph SW18.5 kmh SW 15.0 mph24.1 kmh 30.17 in1021.7 mb - 0.00 in0.0 mm 0.02 in0.5 mm
09:50 AM 60.7°F15.9°C 49.3°F9.6°C 66% 11.5 mph SW18.5 kmh SW 16.1 mph25.9 kmh 30.17 in1021.7 mb - 0.00 in0.0 mm 0.02 in0.5 mm
09:55 AM 61.9°F16.6°C 50.0°F10.0°C 65% 11.5 mph WSW18.5 kmh WSW 15.0 mph24.1 kmh 30.17 in1021.7 mb - 0.00 in0.0 mm 0.02 in0.5 mm
10:00 AM 60.9°F16.1°C 49.5°F9.7°C 66% 12.7 mph WSW20.4 kmh WSW 19.6 mph31.5 kmh 30.17 in1021.7 mb - 0.00 in0.0 mm 0.02 in0.5 mm
10:10 AM 59.7°F15.4°C 49.1°F9.5°C 68% 12.7 mph WSW20.4 kmh WSW 19.6 mph31.5 kmh 30.18 in1022.0 mb - 0.00 in0.0 mm 0.02 in0.5 mm
10:15 AM 61.4°F16.3°C 50.0°F10.0°C 66% 9.2 mph W14.8 kmh W 15.0 mph24.1 kmh 30.18 in1022.0 mb - 0.00 in0.0 mm 0.02 in0.5 mm
10:20 AM 62.0°F16.7°C 48.8°F9.3°C 62% 13.8 mph SW22.2 kmh SW 17.3 mph27.8 kmh 30.18 in1022.0 mb - 0.01 in0.3 mm 0.03 in0.8 mm
10:25 AM 61.9°F16.6°C 49.1°F9.5°C 63% 13.8 mph WSW22.2 kmh WSW 18.4 mph29.6 kmh 30.18 in1022.0 mb - 0.01 in0.3 mm 0.03 in0.8 mm
10:30 AM 62.5°F16.9°C 49.3°F9.6°C 62% 15.0 mph SW24.1 kmh SW 17.3 mph27.8 kmh 30.18 in1022.0 mb - 0.01 in0.3 mm 0.03 in0.8 mm
10:35 AM 62.6°F17.0°C 49.8°F9.9°C 63% 11.5 mph WSW18.5 kmh WSW 13.8 mph22.2 kmh 30.18 in1022.0 mb - 0.01 in0.3 mm 0.03 in0.8 mm
10:40 AM 62.9°F17.2°C 49.7°F9.8°C 62% 10.4 mph SW16.7 kmh SW 13.8 mph22.2 kmh 30.18 in1022.0 mb - 0.01 in0.3 mm 0.03 in0.8 mm
10:45 AM 63.6°F17.6°C 50.3°F10.2°C 62% 12.7 mph WSW20.4 kmh WSW 15.0 mph24.1 kmh 30.19 in1022.4 mb - 0.01 in0.3 mm 0.03 in0.8 mm
10:50 AM 63.1°F17.3°C 49.0°F9.4°C 60% 13.8 mph WSW22.2 kmh WSW 17.3 mph27.8 kmh 30.18 in1022.0 mb - 0.01 in0.3 mm 0.03 in0.8 mm
10:55 AM 62.8°F17.1°C 49.6°F9.8°C 62% 11.5 mph WSW18.5 kmh WSW 16.1 mph25.9 kmh 30.19 in1022.4 mb - 0.01 in0.3 mm 0.03 in0.8 mm
11:00 AM 61.4°F16.3°C 48.7°F9.3°C 63% 11.5 mph WSW18.5 kmh WSW 13.8 mph22.2 kmh 30.19 in1022.4 mb - 0.01 in0.3 mm 0.03 in0.8 mm
11:10 AM 59.9°F15.5°C 49.0°F9.4°C 67% 8.1 mph WSW13.0 kmh WSW 13.8 mph22.2 kmh 30.19 in1022.4 mb - 0.01 in0.3 mm 0.03 in0.8 mm
11:15 AM 61.2°F16.2°C 48.9°F9.4°C 64% 11.5 mph WSW18.5 kmh WSW 12.7 mph20.4 kmh 30.20 in1022.7 mb - 0.01 in0.3 mm 0.03 in0.8 mm
11:20 AM 62.0°F16.7°C 49.7°F9.8°C 64% 9.2 mph SW14.8 kmh SW 12.7 mph20.4 kmh 30.20 in1022.7 mb - 0.00 in0.0 mm 0.03 in0.8 mm
11:25 AM 63.2°F17.3°C 49.9°F9.9°C 62% 11.5 mph WSW18.5 kmh WSW 15.0 mph24.1 kmh 30.19 in1022.4 mb - 0.00 in0.0 mm 0.03 in0.8 mm
11:30 AM 63.5°F17.5°C 49.3°F9.6°C 60% 10.4 mph WSW16.7 kmh WSW 15.0 mph24.1 kmh 30.20 in1022.7 mb - 0.00 in0.0 mm 0.03 in0.8 mm
11:35 AM 63.0°F17.2°C 49.8°F9.9°C 62% 8.1 mph SW13.0 kmh SW 11.5 mph18.5 kmh 30.19 in1022.4 mb - 0.00 in0.0 mm 0.03 in0.8 mm
11:40 AM 61.5°F16.4°C 48.4°F9.1°C 62% 11.5 mph SW18.5 kmh SW 16.1 mph25.9 kmh 30.20 in1022.7 mb - 0.00 in0.0 mm 0.03 in0.8 mm
11:45 AM 61.6°F16.4°C 50.1°F10.1°C 66% 9.2 mph WSW14.8 kmh WSW 11.5 mph18.5 kmh 30.20 in1022.7 mb - 0.00 in0.0 mm 0.03 in0.8 mm
11:50 AM 62.1°F16.7°C 49.7°F9.8°C 64% 10.4 mph SW16.7 kmh SW 13.8 mph22.2 kmh 30.20 in1022.7 mb - 0.00 in0.0 mm 0.03 in0.8 mm
11:55 AM 61.4°F16.3°C 49.1°F9.5°C 64% 9.2 mph SW14.8 kmh SW 11.5 mph18.5 kmh 30.20 in1022.7 mb - 0.00 in0.0 mm 0.03 in0.8 mm
12:00 PM 61.9°F16.6°C 50.4°F10.2°C 66% 8.1 mph SW13.0 kmh SW 11.5 mph18.5 kmh 30.20 in1022.7 mb - 0.00 in0.0 mm 0.03 in0.8 mm
12:10 PM 63.2°F17.3°C 50.0°F10.0°C 62% 10.4 mph SSW16.7 kmh SSW 11.5 mph18.5 kmh 30.20 in1022.7 mb - 0.00 in0.0 mm 0.03 in0.8 mm
12:15 PM 61.5°F16.4°C 50.4°F10.2°C 67% 9.2 mph SW14.8 kmh SW 11.5 mph18.5 kmh 30.20 in1022.7 mb - 0.00 in0.0 mm 0.03 in0.8 mm
12:20 PM 61.4°F16.3°C 49.1°F9.5°C 64% 10.4 mph SW16.7 kmh SW 16.1 mph25.9 kmh 30.20 in1022.7 mb - 0.00 in0.0 mm 0.03 in0.8 mm
12:25 PM 62.6°F17.0°C 49.8°F9.9°C 63% 11.5 mph WSW18.5 kmh WSW 15.0 mph24.1 kmh 30.20 in1022.7 mb - 0.00 in0.0 mm 0.03 in0.8 mm
12:30 PM 64.2°F17.9°C 50.9°F10.5°C 62% 9.2 mph SW14.8 kmh SW 12.7 mph20.4 kmh 30.20 in1022.7 mb - 0.00 in0.0 mm 0.03 in0.8 mm
12:35 PM 62.8°F17.1°C 48.7°F9.3°C 60% 12.7 mph WSW20.4 kmh WSW 16.1 mph25.9 kmh 30.20 in1022.7 mb - 0.00 in0.0 mm 0.03 in0.8 mm
12:40 PM 63.3°F17.4°C 50.9°F10.5°C 64% 10.4 mph WSW16.7 kmh WSW 11.5 mph18.5 kmh 30.20 in1022.7 mb - 0.00 in0.0 mm 0.03 in0.8 mm
12:45 PM 64.9°F18.3°C 51.5°F10.8°C 62% 10.4 mph SW16.7 kmh SW 17.3 mph27.8 kmh 30.19 in1022.4 mb - 0.00 in0.0 mm 0.03 in0.8 mm
12:50 PM 62.7°F17.1°C 49.5°F9.7°C 62% 11.5 mph WSW18.5 kmh WSW 12.7 mph20.4 kmh 30.20 in1022.7 mb - 0.00 in0.0 mm 0.03 in0.8 mm
12:55 PM 63.3°F17.4°C 50.9°F10.5°C 64% 10.4 mph SW16.7 kmh SW 11.5 mph18.5 kmh 30.19 in1022.4 mb - 0.00 in0.0 mm 0.03 in0.8 mm
01:00 PM 63.1°F17.3°C 51.2°F10.7°C 65% 9.2 mph SW14.8 kmh SW 12.7 mph20.4 kmh 30.19 in1022.4 mb - 0.00 in0.0 mm 0.03 in0.8 mm
01:10 PM 63.7°F17.6°C 50.9°F10.5°C 63% 10.4 mph SW16.7 kmh SW 12.7 mph20.4 kmh 30.19 in1022.4 mb - 0.00 in0.0 mm 0.03 in0.8 mm
01:15 PM 63.7°F17.6°C 49.5°F9.7°C 60% 11.5 mph SW18.5 kmh SW 16.1 mph25.9 kmh 30.19 in1022.4 mb - 0.00 in0.0 mm 0.03 in0.8 mm
01:20 PM 64.6°F18.1°C 50.4°F10.2°C 60% 10.4 mph SW16.7 kmh SW 17.3 mph27.8 kmh 30.19 in1022.4 mb - 0.00 in0.0 mm 0.03 in0.8 mm
01:25 PM 64.2°F17.9°C 50.0°F10.0°C 60% 9.2 mph SW14.8 kmh SW 13.8 mph22.2 kmh 30.19 in1022.4 mb - 0.00 in0.0 mm 0.03 in0.8 mm
01:30 PM 64.7°F18.2°C 51.8°F11.0°C 63% 10.4 mph SW16.7 kmh SW 12.7 mph20.4 kmh 30.19 in1022.4 mb - 0.00 in0.0 mm 0.03 in0.8 mm
01:35 PM 64.9°F18.3°C 51.6°F10.9°C 62% 10.4 mph SW16.7 kmh SW 15.0 mph24.1 kmh 30.19 in1022.4 mb - 0.00 in0.0 mm 0.03 in0.8 mm
01:40 PM 64.4°F18.0°C 51.5°F10.8°C 63% 8.1 mph SW13.0 kmh SW 11.5 mph18.5 kmh 30.19 in1022.4 mb - 0.00 in0.0 mm 0.03 in0.8 mm
01:45 PM 65.4°F18.6°C 50.3°F10.2°C 58% 11.5 mph WSW18.5 kmh WSW 12.7 mph20.4 kmh 30.19 in1022.4 mb - 0.00 in0.0 mm 0.03 in0.8 mm
01:50 PM 64.3°F17.9°C 51.0°F10.6°C 62% 10.4 mph WSW16.7 kmh WSW 12.7 mph20.4 kmh 30.19 in1022.4 mb - 0.00 in0.0 mm 0.03 in0.8 mm
01:55 PM 65.6°F18.7°C 51.3°F10.7°C 60% 9.2 mph WSW14.8 kmh WSW 13.8 mph22.2 kmh 30.19 in1022.4 mb - 0.00 in0.0 mm 0.03 in0.8 mm
02:00 PM 64.8°F18.2°C 48.8°F9.3°C 56% 10.4 mph SW16.7 kmh SW 13.8 mph22.2 kmh 30.19 in1022.4 mb - 0.00 in0.0 mm 0.03 in0.8 mm
02:10 PM 64.3°F17.9°C 51.0°F10.6°C 62% 8.1 mph SW13.0 kmh SW 11.5 mph18.5 kmh 30.19 in1022.4 mb - 0.00 in0.0 mm 0.03 in0.8 mm
02:15 PM 64.6°F18.1°C 49.0°F9.4°C 57% 10.4 mph SW16.7 kmh SW 12.7 mph20.4 kmh 30.19 in1022.4 mb - 0.00 in0.0 mm 0.03 in0.8 mm
02:20 PM 62.9°F17.2°C 48.8°F9.3°C 60% 9.2 mph WSW14.8 kmh WSW 11.5 mph18.5 kmh 30.19 in1022.4 mb - 0.00 in0.0 mm 0.03 in0.8 mm
02:25 PM 64.1°F17.8°C 51.7°F10.9°C 64% 8.1 mph WSW13.0 kmh WSW 11.5 mph18.5 kmh 30.19 in1022.4 mb - 0.00 in0.0 mm 0.03 in0.8 mm
02:30 PM 65.2°F18.4°C 49.6°F9.8°C 57% 9.2 mph SW14.8 kmh SW 10.4 mph16.7 kmh 30.19 in1022.4 mb - 0.00 in0.0 mm 0.03 in0.8 mm
02:35 PM 65.2°F18.4°C 51.9°F11.1°C 62% 6.9 mph SW11.1 kmh SW 10.4 mph16.7 kmh 30.19 in1022.4 mb - 0.00 in0.0 mm 0.03 in0.8 mm
02:40 PM 64.2°F17.9°C 49.1°F9.5°C 58% 9.2 mph SW14.8 kmh SW 12.7 mph20.4 kmh 30.19 in1022.4 mb - 0.00 in0.0 mm 0.03 in0.8 mm
02:45 PM 63.8°F17.7°C 50.5°F10.3°C 62% 8.1 mph WSW13.0 kmh WSW 12.7 mph20.4 kmh 30.20 in1022.7 mb - 0.00 in0.0 mm 0.03 in0.8 mm
02:50 PM 65.1°F18.4°C 50.9°F10.5°C 60% 10.4 mph WSW16.7 kmh WSW 15.0 mph24.1 kmh 30.20 in1022.7 mb - 0.00 in0.0 mm 0.03 in0.8 mm
02:55 PM 64.0°F17.8°C 50.3°F10.2°C 61% 9.2 mph SW14.8 kmh SW 11.5 mph18.5 kmh 30.20 in1022.7 mb - 0.00 in0.0 mm 0.03 in0.8 mm
03:00 PM 65.9°F18.8°C 52.1°F11.2°C 61% 8.1 mph WSW13.0 kmh WSW 11.5 mph18.5 kmh 30.20 in1022.7 mb - 0.00 in0.0 mm 0.03 in0.8 mm
03:10 PM 65.9°F18.8°C 49.3°F9.6°C 55% 9.2 mph WSW14.8 kmh WSW 24.2 mph38.9 kmh 30.20 in1022.7 mb - 0.00 in0.0 mm 0.03 in0.8 mm
03:15 PM 65.9°F18.8°C 52.1°F11.2°C 61% 6.9 mph W11.1 kmh W 10.4 mph16.7 kmh 30.20 in1022.7 mb - 0.00 in0.0 mm 0.03 in0.8 mm
03:20 PM 64.7°F18.2°C 51.0°F10.6°C 61% 8.1 mph W13.0 kmh W 11.5 mph18.5 kmh 30.20 in1022.7 mb - 0.00 in0.0 mm 0.03 in0.8 mm
03:25 PM 65.3°F18.5°C 51.9°F11.1°C 62% 4.6 mph WSW7.4 kmh WSW 9.2 mph14.8 kmh 30.20 in1022.7 mb - 0.00 in0.0 mm 0.03 in0.8 mm
03:30 PM 65.6°F18.7°C 49.0°F9.4°C 55% 9.2 mph SW14.8 kmh SW 11.5 mph18.5 kmh 30.20 in1022.7 mb - 0.00 in0.0 mm 0.03 in0.8 mm
03:35 PM 66.0°F18.9°C 49.8°F9.9°C 56% 10.4 mph WSW16.7 kmh WSW 12.7 mph20.4 kmh 30.20 in1022.7 mb - 0.00 in0.0 mm 0.03 in0.8 mm
03:40 PM 64.5°F18.1°C 52.1°F11.2°C 64% 8.1 mph SW13.0 kmh SW 11.5 mph18.5 kmh 30.20 in1022.7 mb - 0.00 in0.0 mm 0.03 in0.8 mm
03:45 PM 64.5°F18.1°C 49.8°F9.9°C 59% 6.9 mph SW11.1 kmh SW 10.4 mph16.7 kmh 30.20 in1022.7 mb - 0.00 in0.0 mm 0.03 in0.8 mm
03:50 PM 65.0°F18.3°C 50.8°F10.4°C 60% 6.9 mph SSW11.1 kmh SSW 10.4 mph16.7 kmh 30.20 in1022.7 mb - 0.00 in0.0 mm 0.03 in0.8 mm
03:55 PM 65.9°F18.8°C 50.7°F10.4°C 58% 10.4 mph WSW16.7 kmh WSW 11.5 mph18.5 kmh 30.20 in1022.7 mb - 0.00 in0.0 mm 0.03 in0.8 mm
04:00 PM 65.7°F18.7°C 49.5°F9.7°C 56% 9.2 mph WSW14.8 kmh WSW 12.7 mph20.4 kmh 30.20 in1022.7 mb - 0.00 in0.0 mm 0.03 in0.8 mm
04:10 PM 62.8°F17.1°C 49.1°F9.5°C 61% 8.1 mph WSW13.0 kmh WSW 9.2 mph14.8 kmh 30.19 in1022.4 mb - 0.00 in0.0 mm 0.03 in0.8 mm
04:15 PM 62.4°F16.9°C 48.7°F9.3°C 61% 4.6 mph SW7.4 kmh SW 5.8 mph9.3 kmh 30.19 in1022.4 mb - 0.00 in0.0 mm 0.03 in0.8 mm
04:20 PM 63.4°F17.4°C 48.9°F9.4°C 59% 8.1 mph SW13.0 kmh SW 11.5 mph18.5 kmh 30.19 in1022.4 mb - 0.00 in0.0 mm 0.03 in0.8 mm
04:25 PM 64.3°F17.9°C 48.7°F9.3°C 57% 5.8 mph SW9.3 kmh SW 6.9 mph11.1 kmh 30.19 in1022.4 mb - 0.00 in0.0 mm 0.03 in0.8 mm
04:30 PM 63.3°F17.4°C 49.2°F9.6°C 60% 5.8 mph SSW9.3 kmh SSW 9.2 mph14.8 kmh 30.19 in1022.4 mb - 0.00 in0.0 mm 0.03 in0.8 mm
04:35 PM 63.3°F17.4°C 50.0°F10.0°C 62% 5.8 mph SW9.3 kmh SW 8.1 mph13.0 kmh 30.19 in1022.4 mb - 0.00 in0.0 mm 0.03 in0.8 mm
04:40 PM 65.1°F18.4°C 50.8°F10.4°C 60% 5.8 mph SW9.3 kmh SW 6.9 mph11.1 kmh 30.19 in1022.4 mb - 0.00 in0.0 mm 0.03 in0.8 mm
04:45 PM 65.5°F18.6°C 51.2°F10.7°C 60% 6.9 mph WSW11.1 kmh WSW 9.2 mph14.8 kmh 30.19 in1022.4 mb - 0.00 in0.0 mm 0.03 in0.8 mm
04:50 PM 64.0°F17.8°C 48.9°F9.4°C 58% 5.8 mph SW9.3 kmh SW 8.1 mph13.0 kmh 30.19 in1022.4 mb - 0.00 in0.0 mm 0.03 in0.8 mm
04:55 PM 64.5°F18.1°C 49.4°F9.7°C 58% 6.9 mph SW11.1 kmh SW 9.2 mph14.8 kmh 30.18 in1022.0 mb - 0.00 in0.0 mm 0.03 in0.8 mm
05:00 PM 63.2°F17.3°C 49.1°F9.5°C 60% 5.8 mph WSW9.3 kmh WSW 8.1 mph13.0 kmh 30.18 in1022.0 mb - 0.00 in0.0 mm 0.03 in0.8 mm
05:10 PM 63.7°F17.6°C 49.1°F9.5°C 59% 6.9 mph SW11.1 kmh SW 11.5 mph18.5 kmh 30.18 in1022.0 mb - 0.00 in0.0 mm 0.03 in0.8 mm
05:15 PM 62.9°F17.2°C 48.8°F9.3°C 60% 6.9 mph WSW11.1 kmh WSW 9.2 mph14.8 kmh 30.18 in1022.0 mb - 0.00 in0.0 mm 0.03 in0.8 mm
05:20 PM 63.5°F17.5°C 49.8°F9.9°C 61% 5.8 mph WSW9.3 kmh WSW 9.2 mph14.8 kmh 30.18 in1022.0 mb - 0.00 in0.0 mm 0.03 in0.8 mm
05:25 PM 63.6°F17.6°C 48.5°F9.2°C 58% 4.6 mph WSW7.4 kmh WSW 5.8 mph9.3 kmh 30.18 in1022.0 mb - 0.00 in0.0 mm 0.03 in0.8 mm
05:30 PM 64.5°F18.1°C 50.7°F10.4°C 61% 4.6 mph WSW7.4 kmh WSW 6.9 mph11.1 kmh 30.18 in1022.0 mb - 0.00 in0.0 mm 0.03 in0.8 mm
05:35 PM 64.8°F18.2°C 49.2°F9.6°C 57% 8.1 mph SW13.0 kmh SW 11.5 mph18.5 kmh 30.18 in1022.0 mb - 0.00 in0.0 mm 0.03 in0.8 mm
05:40 PM 63.8°F17.7°C 47.8°F8.8°C 56% 5.8 mph WSW9.3 kmh WSW 8.1 mph13.0 kmh 30.18 in1022.0 mb - 0.00 in0.0 mm 0.03 in0.8 mm
05:45 PM 63.0°F17.2°C 49.8°F9.9°C 62% 4.6 mph SSW7.4 kmh SSW 6.9 mph11.1 kmh 30.18 in1022.0 mb - 0.00 in0.0 mm 0.03 in0.8 mm
05:50 PM 64.3°F17.9°C 51.0°F10.6°C 62% 2.3 mph SSW3.7 kmh SSW 3.5 mph5.6 kmh 30.18 in1022.0 mb - 0.00 in0.0 mm 0.03 in0.8 mm
05:55 PM 64.2°F17.9°C 49.6°F9.8°C 59% 6.9 mph W11.1 kmh W 9.2 mph14.8 kmh 30.17 in1021.7 mb - 0.00 in0.0 mm 0.03 in0.8 mm
06:00 PM 64.0°F17.8°C 48.9°F9.4°C 58% 6.9 mph WSW11.1 kmh WSW 8.1 mph13.0 kmh 30.17 in1021.7 mb - 0.00 in0.0 mm 0.03 in0.8 mm
06:10 PM 63.9°F17.7°C 49.7°F9.8°C 60% 4.6 mph WSW7.4 kmh WSW 6.9 mph11.1 kmh 30.17 in1021.7 mb - 0.00 in0.0 mm 0.03 in0.8 mm
06:15 PM 63.7°F17.6°C 48.6°F9.2°C 58% 5.8 mph WSW9.3 kmh WSW 8.1 mph13.0 kmh 30.17 in1021.7 mb - 0.00 in0.0 mm 0.03 in0.8 mm
06:20 PM 63.5°F17.5°C 48.9°F9.4°C 59% 3.5 mph WSW5.6 kmh WSW 5.8 mph9.3 kmh 30.17 in1021.7 mb - 0.00 in0.0 mm 0.03 in0.8 mm
06:25 PM 63.6°F17.6°C 49.5°F9.7°C 60% 4.6 mph WSW7.4 kmh WSW 10.4 mph16.7 kmh 30.17 in1021.7 mb - 0.00 in0.0 mm 0.03 in0.8 mm
06:30 PM 63.3°F17.4°C 49.2°F9.6°C 60% 5.8 mph WSW9.3 kmh WSW 6.9 mph11.1 kmh 30.17 in1021.7 mb - 0.00 in0.0 mm 0.03 in0.8 mm
06:35 PM 63.3°F17.4°C 49.1°F9.5°C 60% 3.5 mph WSW5.6 kmh WSW 5.8 mph9.3 kmh 30.17 in1021.7 mb - 0.00 in0.0 mm 0.03 in0.8 mm
06:40 PM 63.6°F17.6°C 49.9°F9.9°C 61% 4.6 mph WSW7.4 kmh WSW 6.9 mph11.1 kmh 30.18 in1022.0 mb - 0.00 in0.0 mm 0.03 in0.8 mm
06:45 PM 63.5°F17.5°C 48.9°F9.4°C 59% 3.5 mph WSW5.6 kmh WSW 3.5 mph5.6 kmh 30.17 in1021.7 mb - 0.00 in0.0 mm 0.03 in0.8 mm
06:50 PM 63.4°F17.4°C 49.7°F9.8°C 61% 5.8 mph WSW9.3 kmh WSW 6.9 mph11.1 kmh 30.18 in1022.0 mb - 0.00 in0.0 mm 0.03 in0.8 mm
06:55 PM 63.3°F17.4°C 50.0°F10.0°C 62% 3.5 mph W5.6 kmh W 6.9 mph11.1 kmh 30.18 in1022.0 mb - 0.00 in0.0 mm 0.03 in0.8 mm
07:00 PM 62.9°F17.2°C 48.8°F9.3°C 60% 4.6 mph WNW7.4 kmh WNW 8.1 mph13.0 kmh 30.18 in1022.0 mb - 0.00 in0.0 mm 0.03 in0.8 mm
07:10 PM 62.1°F16.7°C 49.4°F9.7°C 63% 2.3 mph WSW3.7 kmh WSW 3.5 mph5.6 kmh 30.17 in1021.7 mb - 0.00 in0.0 mm 0.03 in0.8 mm
07:15 PM 61.5°F16.4°C 49.6°F9.8°C 65% 3.5 mph WSW5.6 kmh WSW 6.9 mph11.1 kmh 30.18 in1022.0 mb - 0.00 in0.0 mm 0.03 in0.8 mm
07:20 PM 61.3°F16.3°C 50.2°F10.1°C 67% 2.3 mph SW3.7 kmh SW 4.6 mph7.4 kmh 30.18 in1022.0 mb - 0.00 in0.0 mm 0.03 in0.8 mm
07:25 PM 61.0°F16.1°C 50.0°F10.0°C 67% 2.3 mph WSW3.7 kmh WSW 2.3 mph3.7 kmh 30.18 in1022.0 mb - 0.00 in0.0 mm 0.03 in0.8 mm
07:30 PM 60.8°F16.0°C 50.2°F10.1°C 68% 1.2 mph WSW1.9 kmh WSW 3.5 mph5.6 kmh 30.18 in1022.0 mb - 0.00 in0.0 mm 0.03 in0.8 mm
07:35 PM 60.5°F15.8°C 50.3°F10.2°C 69% 2.3 mph W3.7 kmh W 3.5 mph5.6 kmh 30.18 in1022.0 mb - 0.00 in0.0 mm 0.03 in0.8 mm
07:40 PM 60.0°F15.6°C 50.6°F10.3°C 71% 1.2 mph W1.9 kmh W 2.3 mph3.7 kmh 30.18 in1022.0 mb - 0.00 in0.0 mm 0.03 in0.8 mm
07:45 PM 59.9°F15.5°C 50.5°F10.3°C 71% 2.3 mph W3.7 kmh W 3.5 mph5.6 kmh 30.18 in1022.0 mb - 0.00 in0.0 mm 0.03 in0.8 mm
07:50 PM 59.8°F15.4°C 50.4°F10.2°C 71% 1.2 mph WNW1.9 kmh WNW 2.3 mph3.7 kmh 30.18 in1022.0 mb - 0.00 in0.0 mm 0.03 in0.8 mm
07:55 PM 59.5°F15.3°C 50.5°F10.3°C 72% 2.3 mph W3.7 kmh W 2.3 mph3.7 kmh 30.18 in1022.0 mb - 0.00 in0.0 mm 0.03 in0.8 mm
08:00 PM 59.4°F15.2°C 50.4°F10.2°C 72% 1.2 mph WNW1.9 kmh WNW 2.3 mph3.7 kmh 30.18 in1022.0 mb - 0.00 in0.0 mm 0.03 in0.8 mm
08:10 PM 59.4°F15.2°C 50.3°F10.2°C 72% 2.3 mph WNW3.7 kmh WNW 3.5 mph5.6 kmh 30.18 in1022.0 mb - 0.00 in0.0 mm 0.03 in0.8 mm
08:15 PM 59.1°F15.1°C 50.5°F10.3°C 73% Calm Calm 1.2 mph1.9 kmh 30.18 in1022.0 mb - 0.00 in0.0 mm 0.03 in0.8 mm
08:20 PM 59.1°F15.1°C 50.5°F10.3°C 73% 1.2 mph WNW1.9 kmh WNW 1.2 mph1.9 kmh 30.18 in1022.0 mb - 0.00 in0.0 mm 0.03 in0.8 mm
08:25 PM 59.3°F15.2°C 50.3°F10.2°C 72% 1.2 mph WNW1.9 kmh WNW 3.5 mph5.6 kmh 30.18 in1022.0 mb - 0.00 in0.0 mm 0.03 in0.8 mm
08:30 PM 59.1°F15.1°C 50.1°F10.1°C 72% 1.2 mph NW1.9 kmh NW 2.3 mph3.7 kmh 30.18 in1022.0 mb - 0.00 in0.0 mm 0.03 in0.8 mm
08:35 PM 59.1°F15.1°C 50.1°F10.1°C 72% 1.2 mph NW1.9 kmh NW 1.2 mph1.9 kmh 30.18 in1022.0 mb - 0.00 in0.0 mm 0.03 in0.8 mm
08:40 PM 59.3°F15.2°C 50.2°F10.1°C 72% Calm Calm -- 30.18 in1022.0 mb - 0.00 in0.0 mm 0.03 in0.8 mm
08:45 PM 59.1°F15.1°C 50.4°F10.2°C 73% Calm Calm -- 30.18 in1022.0 mb - 0.00 in0.0 mm 0.03 in0.8 mm
08:50 PM 58.8°F14.9°C 50.9°F10.5°C 75% Calm Calm -- 30.18 in1022.0 mb - 0.00 in0.0 mm 0.03 in0.8 mm
08:55 PM 58.8°F14.9°C 50.1°F10.1°C 73% Calm Calm -- 30.18 in1022.0 mb - 0.00 in0.0 mm 0.03 in0.8 mm
09:00 PM 58.9°F14.9°C 50.3°F10.2°C 73% Calm Calm -- 30.18 in1022.0 mb - 0.00 in0.0 mm 0.03 in0.8 mm
09:10 PM 59.0°F15.0°C 50.4°F10.2°C 73% Calm Calm -- 30.18 in1022.0 mb - 0.00 in0.0 mm 0.03 in0.8 mm
09:15 PM 59.1°F15.1°C 50.4°F10.2°C 73% Calm Calm -- 30.18 in1022.0 mb - 0.00 in0.0 mm 0.03 in0.8 mm
09:20 PM 58.5°F14.7°C 51.0°F10.6°C 76% Calm Calm -- 30.18 in1022.0 mb - 0.00 in0.0 mm 0.03 in0.8 mm
09:25 PM 58.0°F14.4°C 50.8°F10.4°C 77% Calm Calm 1.2 mph1.9 kmh 30.19 in1022.4 mb - 0.00 in0.0 mm 0.03 in0.8 mm
09:30 PM 57.6°F14.2°C 51.1°F10.6°C 79% Calm Calm -- 30.18 in1022.0 mb - 0.00 in0.0 mm 0.03 in0.8 mm
09:35 PM 57.8°F14.3°C 51.3°F10.7°C 79% Calm Calm -- 30.19 in1022.4 mb - 0.00 in0.0 mm 0.03 in0.8 mm
09:40 PM 57.8°F14.3°C 51.0°F10.6°C 78% 1.2 mph NW1.9 kmh NW 2.3 mph3.7 kmh 30.19 in1022.4 mb - 0.00 in0.0 mm 0.03 in0.8 mm
09:45 PM 57.5°F14.2°C 50.3°F10.2°C 77% 1.2 mph SE1.9 kmh SE 2.3 mph3.7 kmh 30.18 in1022.0 mb - 0.00 in0.0 mm 0.03 in0.8 mm
09:50 PM 57.5°F14.2°C 50.0°F10.0°C 76% 1.2 mph SE1.9 kmh SE 2.3 mph3.7 kmh 30.19 in1022.4 mb - 0.00 in0.0 mm 0.03 in0.8 mm
09:55 PM 57.5°F14.2°C 50.0°F10.0°C 76% Calm Calm -- 30.18 in1022.0 mb - 0.00 in0.0 mm 0.03 in0.8 mm
10:00 PM 57.4°F14.1°C 49.5°F9.7°C 75% 1.2 mph SE1.9 kmh SE 2.3 mph3.7 kmh 30.19 in1022.4 mb - 0.00 in0.0 mm 0.03 in0.8 mm
10:10 PM 56.2°F13.4°C 49.8°F9.9°C 79% 1.2 mph SE1.9 kmh SE 2.3 mph3.7 kmh 30.18 in1022.0 mb - 0.00 in0.0 mm 0.03 in0.8 mm
10:15 PM 55.8°F13.2°C 49.4°F9.7°C 79% Calm Calm -- 30.18 in1022.0 mb - 0.00 in0.0 mm 0.03 in0.8 mm
10:20 PM 56.3°F13.5°C 49.9°F9.9°C 79% Calm Calm -- 30.18 in1022.0 mb - 0.00 in0.0 mm 0.03 in0.8 mm
10:25 PM 56.2°F13.4°C 49.8°F9.9°C 79% Calm Calm -- 30.18 in1022.0 mb - 0.00 in0.0 mm 0.03 in0.8 mm
10:30 PM 55.9°F13.3°C 50.1°F10.1°C 81% Calm Calm -- 30.18 in1022.0 mb - 0.00 in0.0 mm 0.03 in0.8 mm
10:35 PM 55.5°F13.1°C 50.1°F10.1°C 82% Calm Calm -- 30.18 in1022.0 mb - 0.00 in0.0 mm 0.03 in0.8 mm
10:40 PM 55.2°F12.9°C 50.1°F10.1°C 83% Calm Calm -- 30.18 in1022.0 mb - 0.00 in0.0 mm 0.03 in0.8 mm
10:45 PM 54.5°F12.5°C 49.5°F9.7°C 83% Calm Calm -- 30.18 in1022.0 mb - 0.00 in0.0 mm 0.03 in0.8 mm
10:50 PM 54.4°F12.4°C 49.7°F9.8°C 84% Calm Calm -- 30.18 in1022.0 mb - 0.00 in0.0 mm 0.03 in0.8 mm
10:55 PM 54.8°F12.7°C 50.1°F10.1°C 84% Calm Calm -- 30.18 in1022.0 mb - 0.00 in0.0 mm 0.03 in0.8 mm
11:00 PM 54.8°F12.7°C 49.8°F9.9°C 83% Calm Calm -- 30.18 in1022.0 mb - 0.00 in0.0 mm 0.36 in9.1 mm
11:10 PM 54.2°F12.3°C 49.5°F9.7°C 84% Calm Calm -- 30.17 in1021.7 mb - 0.00 in0.0 mm 0.36 in9.1 mm
11:15 PM 54.2°F12.3°C 49.8°F9.9°C 85% Calm Calm -- 30.18 in1022.0 mb - 0.00 in0.0 mm 0.36 in9.1 mm
11:20 PM 54.6°F12.6°C 50.1°F10.1°C 85% Calm Calm -- 30.17 in1021.7 mb - 0.00 in0.0 mm 0.36 in9.1 mm
11:25 PM 54.9°F12.7°C 50.5°F10.3°C 85% Calm Calm -- 30.17 in1021.7 mb - 0.00 in0.0 mm 0.36 in9.1 mm
11:30 PM 54.9°F12.7°C 50.5°F10.3°C 85% Calm Calm -- 30.17 in1021.7 mb - 0.00 in0.0 mm 0.36 in9.1 mm
11:35 PM 54.7°F12.6°C 50.2°F10.1°C 85% Calm Calm 1.2 mph1.9 kmh 30.16 in1021.3 mb - 0.00 in0.0 mm 0.36 in9.1 mm
11:40 PM 54.4°F12.4°C 49.7°F9.8°C 84% Calm Calm -- 30.16 in1021.3 mb - 0.00 in0.0 mm 0.36 in9.1 mm
11:45 PM 53.3°F11.8°C 48.9°F9.4°C 85% Calm Calm -- 30.17 in1021.7 mb - 0.00 in0.0 mm 0.36 in9.1 mm
11:50 PM 52.9°F11.6°C 49.4°F9.7°C 88% 1.2 mph SE1.9 kmh SE 1.2 mph1.9 kmh 30.17 in1021.7 mb - 0.00 in0.0 mm 0.36 in9.1 mm
11:55 PM 53.2°F11.8°C 49.7°F9.8°C 88% Calm Calm -- 30.17 in1021.7 mb - 0.00 in0.0 mm 0.36 in9.1 mm